sensor_id;sensor_type;location;lat;lon;timestamp;pressure;altitude;pressure_sealevel;temperature
43802;BMP280;29429;51.074;13.764;2023-02-18T00:00:15;100170.78;;;10.44
43802;BMP280;29429;51.074;13.764;2023-02-18T00:02:45;100166.63;;;10.35
43802;BMP280;29429;51.074;13.764;2023-02-18T00:05:13;100185.78;;;10.45
43802;BMP280;29429;51.074;13.764;2023-02-18T00:07:41;100174.31;;;10.51
43802;BMP280;29429;51.074;13.764;2023-02-18T00:10:13;100177.66;;;10.53
43802;BMP280;29429;51.074;13.764;2023-02-18T00:12:41;100174.97;;;10.53
43802;BMP280;29429;51.074;13.764;2023-02-18T00:15:09;100160.97;;;10.51
43802;BMP280;29429;51.074;13.764;2023-02-18T00:17:36;100150.88;;;10.40
43802;BMP280;29429;51.074;13.764;2023-02-18T00:20:05;100160.94;;;10.45
43802;BMP280;29429;51.074;13.764;2023-02-18T00:22:33;100162.69;;;10.31
43802;BMP280;29429;51.074;13.764;2023-02-18T00:25:00;100171.81;;;10.22
43802;BMP280;29429;51.074;13.764;2023-02-18T00:27:27;100166.06;;;10.18
43802;BMP280;29429;51.074;13.764;2023-02-18T00:29:54;100164.63;;;10.16
43802;BMP280;29429;51.074;13.764;2023-02-18T00:32:21;100160.38;;;10.07
43802;BMP280;29429;51.074;13.764;2023-02-18T00:34:48;100165.34;;;10.10
43802;BMP280;29429;51.074;13.764;2023-02-18T00:37:15;100171.28;;;10.12
43802;BMP280;29429;51.074;13.764;2023-02-18T00:39:42;100177.66;;;10.11
43802;BMP280;29429;51.074;13.764;2023-02-18T00:42:10;100171.16;;;10.13
43802;BMP280;29429;51.074;13.764;2023-02-18T00:44:37;100181.44;;;10.16
43802;BMP280;29429;51.074;13.764;2023-02-18T00:47:04;100169.56;;;10.19
43802;BMP280;29429;51.074;13.764;2023-02-18T00:49:31;100180.97;;;10.13
43802;BMP280;29429;51.074;13.764;2023-02-18T00:51:58;100182.66;;;10.14
43802;BMP280;29429;51.074;13.764;2023-02-18T00:54:25;100180.22;;;10.19
43802;BMP280;29429;51.074;13.764;2023-02-18T00:56:52;100170.38;;;10.19
43802;BMP280;29429;51.074;13.764;2023-02-18T00:59:19;100176.97;;;10.23
43802;BMP280;29429;51.074;13.764;2023-02-18T01:01:46;100169.56;;;10.19
43802;BMP280;29429;51.074;13.764;2023-02-18T01:04:13;100175.16;;;10.24
43802;BMP280;29429;51.074;13.764;2023-02-18T01:06:40;100168.53;;;10.20
43802;BMP280;29429;51.074;13.764;2023-02-18T01:09:08;100170.19;;;10.21
43802;BMP280;29429;51.074;13.764;2023-02-18T01:11:36;100167.78;;;10.26
43802;BMP280;29429;51.074;13.764;2023-02-18T01:14:04;100181.47;;;10.23
43802;BMP280;29429;51.074;13.764;2023-02-18T01:16:36;100149.69;;;10.21
43802;BMP280;29429;51.074;13.764;2023-02-18T01:19:03;100181.22;;;10.18
43802;BMP280;29429;51.074;13.764;2023-02-18T01:21:33;100174.09;;;10.25
43802;BMP280;29429;51.074;13.764;2023-02-18T01:24:00;100173.25;;;10.18
43802;BMP280;29429;51.074;13.764;2023-02-18T01:26:30;100183.53;;;10.21
43802;BMP280;29429;51.074;13.764;2023-02-18T01:28:59;100169.59;;;10.25
43802;BMP280;29429;51.074;13.764;2023-02-18T01:31:26;100169.16;;;10.22
43802;BMP280;29429;51.074;13.764;2023-02-18T01:33:54;100167.53;;;10.21
43802;BMP280;29429;51.074;13.764;2023-02-18T01:36:21;100172.66;;;10.22
43802;BMP280;29429;51.074;13.764;2023-02-18T01:38:48;100174.06;;;10.18
43802;BMP280;29429;51.074;13.764;2023-02-18T01:41:15;100169.00;;;10.09
43802;BMP280;29429;51.074;13.764;2023-02-18T01:43:42;100158.47;;;10.01
43802;BMP280;29429;51.074;13.764;2023-02-18T01:46:20;100168.13;;;10.02
43802;BMP280;29429;51.074;13.764;2023-02-18T01:48:56;100172.97;;;9.92
43802;BMP280;29429;51.074;13.764;2023-02-18T01:51:36;100175.75;;;9.84
43802;BMP280;29429;51.074;13.764;2023-02-18T01:54:22;100167.28;;;9.80
43802;BMP280;29429;51.074;13.764;2023-02-18T01:57:25;100169.13;;;9.79
43802;BMP280;29429;51.074;13.764;2023-02-18T02:00:10;100173.47;;;9.80
43802;BMP280;29429;51.074;13.764;2023-02-18T02:02:50;100167.03;;;9.75
43802;BMP280;29429;51.074;13.764;2023-02-18T02:05:19;100170.91;;;9.72
43802;BMP280;29429;51.074;13.764;2023-02-18T02:07:50;100160.88;;;9.74
43802;BMP280;29429;51.074;13.764;2023-02-18T02:10:19;100164.59;;;9.73
43802;BMP280;29429;51.074;13.764;2023-02-18T02:13:04;100186.31;;;9.77
43802;BMP280;29429;51.074;13.764;2023-02-18T02:15:46;100186.63;;;9.67
43802;BMP280;29429;51.074;13.764;2023-02-18T02:28:00;100189.59;;;9.58
43802;BMP280;29429;51.074;13.764;2023-02-18T02:36:51;100188.41;;;9.60
43802;BMP280;29429;51.074;13.764;2023-02-18T02:43:25;100178.13;;;9.57
43802;BMP280;29429;51.074;13.764;2023-02-18T02:48:38;100186.16;;;9.64
43802;BMP280;29429;51.074;13.764;2023-02-18T02:53:52;100187.91;;;9.71
43802;BMP280;29429;51.074;13.764;2023-02-18T02:56:23;100185.88;;;9.73
43802;BMP280;29429;51.074;13.764;2023-02-18T02:59:00;100178.16;;;9.78
43802;BMP280;29429;51.074;13.764;2023-02-18T03:16:50;100185.00;;;9.88
43802;BMP280;29429;51.074;13.764;2023-02-18T03:19:38;100180.44;;;9.82
43802;BMP280;29429;51.074;13.764;2023-02-18T03:22:17;100190.97;;;9.90
43802;BMP280;29429;51.074;13.764;2023-02-18T03:24:52;100190.59;;;9.93
43802;BMP280;29429;51.074;13.764;2023-02-18T03:28:01;100192.25;;;9.94
43802;BMP280;29429;51.074;13.764;2023-02-18T03:30:43;100178.16;;;10.00
43802;BMP280;29429;51.074;13.764;2023-02-18T03:33:19;100185.13;;;10.01
43802;BMP280;29429;51.074;13.764;2023-02-18T03:35:51;100183.50;;;10.00
43802;BMP280;29429;51.074;13.764;2023-02-18T03:38:33;100186.16;;;10.00
43802;BMP280;29429;51.074;13.764;2023-02-18T03:41:01;100177.53;;;9.98
43802;BMP280;29429;51.074;13.764;2023-02-18T03:43:29;100178.16;;;10.00
43802;BMP280;29429;51.074;13.764;2023-02-18T03:45:57;100187.16;;;9.99
43802;BMP280;29429;51.074;13.764;2023-02-18T03:48:24;100180.19;;;9.98
43802;BMP280;29429;51.074;13.764;2023-02-18T03:50:51;100172.22;;;9.98
43802;BMP280;29429;51.074;13.764;2023-02-18T03:53:18;100181.66;;;10.00
43802;BMP280;29429;51.074;13.764;2023-02-18T03:55:45;100176.06;;;9.95
43802;BMP280;29429;51.074;13.764;2023-02-18T03:58:13;100164.00;;;9.99
43802;BMP280;29429;51.074;13.764;2023-02-18T04:00:39;100178.53;;;9.97
43802;BMP280;29429;51.074;13.764;2023-02-18T04:03:06;100177.53;;;9.98
43802;BMP280;29429;51.074;13.764;2023-02-18T04:05:33;100180.19;;;9.98
43802;BMP280;29429;51.074;13.764;2023-02-18T04:08:01;100189.00;;;9.98
43802;BMP280;29429;51.074;13.764;2023-02-18T04:10:28;100189.19;;;9.97
43802;BMP280;29429;51.074;13.764;2023-02-18T04:12:55;100183.50;;;10.00
43802;BMP280;29429;51.074;13.764;2023-02-18T04:15:22;100177.53;;;9.98
43802;BMP280;29429;51.074;13.764;2023-02-18T04:17:50;100179.78;;;10.01
43802;BMP280;29429;51.074;13.764;2023-02-18T04:20:17;100198.19;;;9.96
43802;BMP280;29429;51.074;13.764;2023-02-18T04:22:44;100194.66;;;9.89
43802;BMP280;29429;51.074;13.764;2023-02-18T04:25:11;100180.94;;;9.92
43802;BMP280;29429;51.074;13.764;2023-02-18T04:27:38;100189.78;;;9.92
43802;BMP280;29429;51.074;13.764;2023-02-18T04:30:06;100192.44;;;9.92
43802;BMP280;29429;51.074;13.764;2023-02-18T04:32:33;100188.31;;;9.90
43802;BMP280;29429;51.074;13.764;2023-02-18T04:35:00;100195.28;;;9.91
43802;BMP280;29429;51.074;13.764;2023-02-18T04:37:27;100194.72;;;9.95
43802;BMP280;29429;51.074;13.764;2023-02-18T04:39:54;100181.56;;;9.94
43802;BMP280;29429;51.074;13.764;2023-02-18T04:42:22;100157.22;;;9.97
43802;BMP280;29429;51.074;13.764;2023-02-18T04:44:49;100164.00;;;9.99
43802;BMP280;29429;51.074;13.764;2023-02-18T04:47:16;100157.44;;;9.95
43802;BMP280;29429;51.074;13.764;2023-02-18T04:49:43;100163.19;;;9.99
43802;BMP280;29429;51.074;13.764;2023-02-18T04:52:10;100177.13;;;10.01
43802;BMP280;29429;51.074;13.764;2023-02-18T04:54:37;100179.63;;;10.02
43802;BMP280;29429;51.074;13.764;2023-02-18T04:57:04;100183.25;;;9.95
43802;BMP280;29429;51.074;13.764;2023-02-18T04:59:31;100176.63;;;9.91
43802;BMP280;29429;51.074;13.764;2023-02-18T05:01:58;100181.94;;;9.91
43802;BMP280;29429;51.074;13.764;2023-02-18T05:04:25;100181.69;;;9.86
43802;BMP280;29429;51.074;13.764;2023-02-18T05:06:52;100174.34;;;9.88
43802;BMP280;29429;51.074;13.764;2023-02-18T05:09:20;100186.84;;;9.87
43802;BMP280;29429;51.074;13.764;2023-02-18T05:11:47;100179.50;;;9.89
43802;BMP280;29429;51.074;13.764;2023-02-18T05:14:14;100170.75;;;9.95
43802;BMP280;29429;51.074;13.764;2023-02-18T05:16:41;100182.88;;;9.98
43802;BMP280;29429;51.074;13.764;2023-02-18T05:19:13;100170.16;;;10.00
43802;BMP280;29429;51.074;13.764;2023-02-18T05:21:41;100165.47;;;10.02
43802;BMP280;29429;51.074;13.764;2023-02-18T05:24:08;100153.34;;;9.99
43802;BMP280;29429;51.074;13.764;2023-02-18T05:26:36;100161.34;;;9.99
43802;BMP280;29429;51.074;13.764;2023-02-18T05:29:03;100164.84;;;10.00
43802;BMP280;29429;51.074;13.764;2023-02-18T05:31:30;100154.94;;;9.94
43802;BMP280;29429;51.074;13.764;2023-02-18T05:33:58;100150.88;;;9.98
43802;BMP280;29429;51.074;13.764;2023-02-18T05:36:26;100149.84;;;9.99
43802;BMP280;29429;51.074;13.764;2023-02-18T05:38:53;100150.88;;;9.98
43802;BMP280;29429;51.074;13.764;2023-02-18T05:41:20;100146.78;;;9.95
43802;BMP280;29429;51.074;13.764;2023-02-18T05:43:47;100136.53;;;9.99
43802;BMP280;29429;51.074;13.764;2023-02-18T05:46:32;100140.66;;;10.01
43802;BMP280;29429;51.074;13.764;2023-02-18T05:48:59;100144.97;;;10.02
43802;BMP280;29429;51.074;13.764;2023-02-18T05:51:26;100144.16;;;10.02
43802;BMP280;29429;51.074;13.764;2023-02-18T05:53:53;100137.38;;;9.99
43802;BMP280;29429;51.074;13.764;2023-02-18T05:56:21;100130.00;;;10.01
43802;BMP280;29429;51.074;13.764;2023-02-18T05:58:49;100135.78;;;10.05
43802;BMP280;29429;51.074;13.764;2023-02-18T06:01:15;100138.44;;;10.05
43802;BMP280;29429;51.074;13.764;2023-02-18T06:03:42;100132.50;;;10.03
43802;BMP280;29429;51.074;13.764;2023-02-18T06:06:09;100127.34;;;10.01
43802;BMP280;29429;51.074;13.764;2023-02-18T06:08:37;100133.69;;;10.00
43802;BMP280;29429;51.074;13.764;2023-02-18T06:11:04;100124.25;;;9.98
43802;BMP280;29429;51.074;13.764;2023-02-18T06:13:31;100133.44;;;9.95
43802;BMP280;29429;51.074;13.764;2023-02-18T06:15:58;100132.00;;;9.93
43802;BMP280;29429;51.074;13.764;2023-02-18T06:18:25;100139.69;;;9.88
43802;BMP280;29429;51.074;13.764;2023-02-18T06:20:52;100135.03;;;9.90
43802;BMP280;29429;51.074;13.764;2023-02-18T06:23:19;100138.69;;;9.89
43802;BMP280;29429;51.074;13.764;2023-02-18T06:25:50;100129.06;;;9.88
43802;BMP280;29429;51.074;13.764;2023-02-18T06:28:17;100133.50;;;9.80
43802;BMP280;29429;51.074;13.764;2023-02-18T06:30:45;100138.44;;;9.84
43802;BMP280;29429;51.074;13.764;2023-02-18T06:33:12;100124.13;;;9.85
43802;BMP280;29429;51.074;13.764;2023-02-18T06:35:40;100129.50;;;9.91
43802;BMP280;29429;51.074;13.764;2023-02-18T06:38:07;100133.81;;;9.92
43802;BMP280;29429;51.074;13.764;2023-02-18T06:40:34;100124.63;;;9.95
43802;BMP280;29429;51.074;13.764;2023-02-18T06:43:02;100119.69;;;9.92
43802;BMP280;29429;51.074;13.764;2023-02-18T06:45:29;100123.16;;;9.92
43802;BMP280;29429;51.074;13.764;2023-02-18T06:47:56;100124.41;;;9.96
43802;BMP280;29429;51.074;13.764;2023-02-18T06:50:23;100121.38;;;9.99
43802;BMP280;29429;51.074;13.764;2023-02-18T06:52:57;100123.06;;;10.07
43802;BMP280;29429;51.074;13.764;2023-02-18T06:55:25;100107.84;;;10.01
43802;BMP280;29429;51.074;13.764;2023-02-18T06:57:52;100117.97;;;10.05
43802;BMP280;29429;51.074;13.764;2023-02-18T07:00:19;100118.13;;;10.04
43802;BMP280;29429;51.074;13.764;2023-02-18T07:02:46;100113.97;;;9.95
43802;BMP280;29429;51.074;13.764;2023-02-18T07:05:13;100118.38;;;9.88
43802;BMP280;29429;51.074;13.764;2023-02-18T07:07:40;100106.81;;;9.95
43802;BMP280;29429;51.074;13.764;2023-02-18T07:10:08;100109.13;;;10.05
43802;BMP280;29429;51.074;13.764;2023-02-18T07:12:35;100103.84;;;10.11
43802;BMP280;29429;51.074;13.764;2023-02-18T07:15:03;100100.03;;;10.14
43802;BMP280;29429;51.074;13.764;2023-02-18T07:17:30;100101.28;;;10.18
43802;BMP280;29429;51.074;13.764;2023-02-18T07:19:57;100084.91;;;10.21
43802;BMP280;29429;51.074;13.764;2023-02-18T07:22:24;100086.59;;;10.28
43802;BMP280;29429;51.074;13.764;2023-02-18T07:24:52;100088.50;;;10.34
43802;BMP280;29429;51.074;13.764;2023-02-18T07:27:20;100085.00;;;10.34
43802;BMP280;29429;51.074;13.764;2023-02-18T07:29:47;100077.00;;;10.34
43802;BMP280;29429;51.074;13.764;2023-02-18T07:32:17;100072.09;;;10.37
43802;BMP280;29429;51.074;13.764;2023-02-18T07:34:44;100072.09;;;10.37
43802;BMP280;29429;51.074;13.764;2023-02-18T07:37:11;100062.44;;;10.36
43802;BMP280;29429;51.074;13.764;2023-02-18T07:39:43;100059.00;;;10.43
43802;BMP280;29429;51.074;13.764;2023-02-18T07:42:11;100070.50;;;10.43
43802;BMP280;29429;51.074;13.764;2023-02-18T07:44:40;100068.63;;;10.44
43802;BMP280;29429;51.074;13.764;2023-02-18T07:47:12;100040.09;;;10.37
43802;BMP280;29429;51.074;13.764;2023-02-18T07:49:40;100065.94;;;10.37
43802;BMP280;29429;51.074;13.764;2023-02-18T07:52:07;100044.78;;;10.35
43802;BMP280;29429;51.074;13.764;2023-02-18T07:54:34;100038.22;;;10.31
43802;BMP280;29429;51.074;13.764;2023-02-18T07:57:02;100039.66;;;10.34
43802;BMP280;29429;51.074;13.764;2023-02-18T07:59:29;100026.97;;;10.36
43802;BMP280;29429;51.074;13.764;2023-02-18T08:01:56;100035.56;;;10.38
43802;BMP280;29429;51.074;13.764;2023-02-18T08:04:23;100034.56;;;10.39
43802;BMP280;29429;51.074;13.764;2023-02-18T08:06:51;100017.13;;;10.36
43802;BMP280;29429;51.074;13.764;2023-02-18T08:09:18;100031.28;;;10.37
43802;BMP280;29429;51.074;13.764;2023-02-18T08:11:45;100022.84;;;10.33
43802;BMP280;29429;51.074;13.764;2023-02-18T08:14:12;100014.25;;;10.38
43802;BMP280;29429;51.074;13.764;2023-02-18T08:16:39;100013.44;;;10.37
43802;BMP280;29429;51.074;13.764;2023-02-18T08:19:06;100010.56;;;10.32
43802;BMP280;29429;51.074;13.764;2023-02-18T08:21:34;100005.41;;;10.31
43802;BMP280;29429;51.074;13.764;2023-02-18T08:24:02;100004.00;;;10.35
43802;BMP280;29429;51.074;13.764;2023-02-18T08:26:29;100005.44;;;10.37
43802;BMP280;29429;51.074;13.764;2023-02-18T08:28:56;99996.22;;;10.40
43802;BMP280;29429;51.074;13.764;2023-02-18T08:31:27;100000.38;;;10.49
43802;BMP280;29429;51.074;13.764;2023-02-18T08:33:56;99986.41;;;10.47
43802;BMP280;29429;51.074;13.764;2023-02-18T08:36:24;99981.53;;;10.51
43802;BMP280;29429;51.074;13.764;2023-02-18T08:38:51;99981.34;;;10.59
43802;BMP280;29429;51.074;13.764;2023-02-18T08:41:18;99962.69;;;10.59
43802;BMP280;29429;51.074;13.764;2023-02-18T08:43:46;99960.41;;;10.62
43802;BMP280;29429;51.074;13.764;2023-02-18T08:46:14;99970.69;;;10.59
43802;BMP280;29429;51.074;13.764;2023-02-18T08:48:59;99965.47;;;10.44
43802;BMP280;29429;51.074;13.764;2023-02-18T08:51:27;99963.44;;;10.46
43802;BMP280;29429;51.074;13.764;2023-02-18T08:53:54;99958.34;;;10.58
43802;BMP280;29429;51.074;13.764;2023-02-18T08:56:21;99938.06;;;10.63
43802;BMP280;29429;51.074;13.764;2023-02-18T08:58:49;99937.47;;;10.68
43802;BMP280;29429;51.074;13.764;2023-02-18T09:01:19;99935.41;;;10.70
43802;BMP280;29429;51.074;13.764;2023-02-18T09:03:47;99939.13;;;10.69
43802;BMP280;29429;51.074;13.764;2023-02-18T09:06:14;99931.13;;;10.75
43802;BMP280;29429;51.074;13.764;2023-02-18T09:08:42;99918.44;;;10.77
43802;BMP280;29429;51.074;13.764;2023-02-18T09:11:10;99921.31;;;10.82
43802;BMP280;29429;51.074;13.764;2023-02-18T11:52:56;99599.69;;;13.28
43802;BMP280;29429;51.074;13.764;2023-02-18T11:59:34;99596.25;;;13.39
43802;BMP280;29429;51.074;13.764;2023-02-18T12:05:30;99599.63;;;13.47
43802;BMP280;29429;51.074;13.764;2023-02-18T12:08:13;99588.22;;;13.51
43802;BMP280;29429;51.074;13.764;2023-02-18T12:11:02;99589.63;;;13.54
43802;BMP280;29429;51.074;13.764;2023-02-18T12:13:52;99572.84;;;13.47
43802;BMP280;29429;51.074;13.764;2023-02-18T12:26:22;99596.91;;;13.35
43802;BMP280;29429;51.074;13.764;2023-02-18T12:33:18;99595.72;;;13.31
43802;BMP280;29429;51.074;13.764;2023-02-18T12:49:47;99596.03;;;13.23
43802;BMP280;29429;51.074;13.764;2023-02-18T12:52:57;99588.53;;;13.13
43802;BMP280;29429;51.074;13.764;2023-02-18T13:13:20;99598.31;;;13.01
43802;BMP280;29429;51.074;13.764;2023-02-18T13:16:22;99591.31;;;13.00
43802;BMP280;29429;51.074;13.764;2023-02-18T13:19:02;99582.41;;;13.06
43802;BMP280;29429;51.074;13.764;2023-02-18T13:21:31;99585.53;;;13.03
43802;BMP280;29429;51.074;13.764;2023-02-18T13:24:40;99573.78;;;13.04
43802;BMP280;29429;51.074;13.764;2023-02-18T13:27:54;99582.97;;;13.15
43802;BMP280;29429;51.074;13.764;2023-02-18T13:34:12;99583.41;;;13.12
43802;BMP280;29429;51.074;13.764;2023-02-18T13:36:54;99587.09;;;12.93
43802;BMP280;29429;51.074;13.764;2023-02-18T13:39:48;99576.25;;;12.88
43802;BMP280;29429;51.074;13.764;2023-02-18T13:42:36;99589.47;;;12.82
43802;BMP280;29429;51.074;13.764;2023-02-18T13:45:31;99602.34;;;12.74
43802;BMP280;29429;51.074;13.764;2023-02-18T13:48:00;99611.72;;;12.65
43802;BMP280;29429;51.074;13.764;2023-02-18T13:50:32;99613.56;;;12.64
43802;BMP280;29429;51.074;13.764;2023-02-18T13:59:23;99602.16;;;12.51
43802;BMP280;29429;51.074;13.764;2023-02-18T14:01:52;99604.72;;;12.39
43802;BMP280;29429;51.074;13.764;2023-02-18T14:10:30;99589.94;;;12.37
43802;BMP280;29429;51.074;13.764;2023-02-18T14:20:48;99588.31;;;12.36
43802;BMP280;29429;51.074;13.764;2023-02-18T14:31:34;99594.44;;;12.43
43802;BMP280;29429;51.074;13.764;2023-02-18T14:34:29;99590.94;;;12.42
43802;BMP280;29429;51.074;13.764;2023-02-18T14:43:18;99605.63;;;12.33
43802;BMP280;29429;51.074;13.764;2023-02-18T14:51:34;99603.56;;;12.35
43802;BMP280;29429;51.074;13.764;2023-02-18T14:54:05;99598.59;;;12.39
43802;BMP280;29429;51.074;13.764;2023-02-18T14:56:40;99600.88;;;12.35
43802;BMP280;29429;51.074;13.764;2023-02-18T14:59:12;99605.19;;;12.36
43802;BMP280;29429;51.074;13.764;2023-02-18T15:01:40;99617.50;;;12.37
43802;BMP280;29429;51.074;13.764;2023-02-18T15:04:13;99620.69;;;12.28
43802;BMP280;29429;51.074;13.764;2023-02-18T15:06:41;99637.84;;;12.20
43802;BMP280;29429;51.074;13.764;2023-02-18T15:09:19;99636.28;;;12.06
43802;BMP280;29429;51.074;13.764;2023-02-18T15:11:55;99634.38;;;11.88
43802;BMP280;29429;51.074;13.764;2023-02-18T15:14:37;99639.53;;;11.83
43802;BMP280;29429;51.074;13.764;2023-02-18T15:17:15;99642.91;;;11.72
43802;BMP280;29429;51.074;13.764;2023-02-18T15:19:54;99653.78;;;11.64
43802;BMP280;29429;51.074;13.764;2023-02-18T15:22:25;99624.66;;;11.56
43802;BMP280;29429;51.074;13.764;2023-02-18T15:24:55;99604.16;;;11.50
43802;BMP280;29429;51.074;13.764;2023-02-18T15:27:28;99642.53;;;11.55
43802;BMP280;29429;51.074;13.764;2023-02-18T15:30:18;99638.66;;;11.51
43802;BMP280;29429;51.074;13.764;2023-02-18T15:32:55;99637.25;;;11.49
43802;BMP280;29429;51.074;13.764;2023-02-18T15:35:29;99634.19;;;11.39
43802;BMP280;29429;51.074;13.764;2023-02-18T15:37:59;99639.50;;;11.45
43802;BMP280;29429;51.074;13.764;2023-02-18T15:40:31;99622.66;;;11.51
43802;BMP280;29429;51.074;13.764;2023-02-18T15:43:04;99635.69;;;11.66
43802;BMP280;29429;51.074;13.764;2023-02-18T15:45:43;99644.25;;;11.81
43802;BMP280;29429;51.074;13.764;2023-02-18T15:48:31;99644.16;;;11.94
43802;BMP280;29429;51.074;13.764;2023-02-18T15:51:10;99646.75;;;12.07
43802;BMP280;29429;51.074;13.764;2023-02-18T15:53:48;99634.59;;;12.11
43802;BMP280;29429;51.074;13.764;2023-02-18T15:56:36;99614.88;;;12.12
43802;BMP280;29429;51.074;13.764;2023-02-18T15:59:18;99622.44;;;12.15
43802;BMP280;29429;51.074;13.764;2023-02-18T16:01:53;99627.78;;;12.15
43802;BMP280;29429;51.074;13.764;2023-02-18T16:04:23;99629.53;;;12.03
43802;BMP280;29429;51.074;13.764;2023-02-18T16:06:54;99639.78;;;12.06
43802;BMP280;29429;51.074;13.764;2023-02-18T16:09:30;99631.09;;;12.11
43802;BMP280;29429;51.074;13.764;2023-02-18T16:12:25;99633.84;;;12.04
43802;BMP280;29429;51.074;13.764;2023-02-18T16:15:06;99654.97;;;12.12
43802;BMP280;29429;51.074;13.764;2023-02-18T16:17:43;99649.81;;;12.11
43802;BMP280;29429;51.074;13.764;2023-02-18T16:20:25;99663.59;;;12.14
43802;BMP280;29429;51.074;13.764;2023-02-18T16:23:25;99659.75;;;12.04
43802;BMP280;29429;51.074;13.764;2023-02-18T16:25:56;99655.66;;;12.01
43802;BMP280;29429;51.074;13.764;2023-02-18T16:29:00;99663.84;;;12.06
43802;BMP280;29429;51.074;13.764;2023-02-18T16:31:29;99668.59;;;12.04
43802;BMP280;29429;51.074;13.764;2023-02-18T16:33:56;99674.09;;;12.09
43802;BMP280;29429;51.074;13.764;2023-02-18T16:36:24;99665.69;;;12.06
43802;BMP280;29429;51.074;13.764;2023-02-18T16:38:55;99658.53;;;12.00
43802;BMP280;29429;51.074;13.764;2023-02-18T16:41:25;99652.34;;;11.99
43802;BMP280;29429;51.074;13.764;2023-02-18T16:43:53;99672.28;;;12.03
43802;BMP280;29429;51.074;13.764;2023-02-18T16:46:23;99686.47;;;12.04
43802;BMP280;29429;51.074;13.764;2023-02-18T16:48:53;99681.97;;;12.04
43802;BMP280;29429;51.074;13.764;2023-02-18T16:51:31;99690.16;;;12.09
43802;BMP280;29429;51.074;13.764;2023-02-18T16:53:59;99687.31;;;12.04
43802;BMP280;29429;51.074;13.764;2023-02-18T16:56:31;99696.75;;;12.07
43802;BMP280;29429;51.074;13.764;2023-02-18T16:58:59;99693.03;;;12.08
43802;BMP280;29429;51.074;13.764;2023-02-18T17:01:39;99690.16;;;12.09
43802;BMP280;29429;51.074;13.764;2023-02-18T17:04:15;99694.88;;;12.07
43802;BMP280;29429;51.074;13.764;2023-02-18T17:06:43;99697.13;;;12.10
43802;BMP280;29429;51.074;13.764;2023-02-18T17:09:20;99705.31;;;12.15
43802;BMP280;29429;51.074;13.764;2023-02-18T17:11:54;99703.28;;;12.11
43802;BMP280;29429;51.074;13.764;2023-02-18T17:14:22;99716.66;;;12.11
43802;BMP280;29429;51.074;13.764;2023-02-18T17:16:56;99716.06;;;12.09
43802;BMP280;29429;51.074;13.764;2023-02-18T17:19:23;99723.94;;;11.97
43802;BMP280;29429;51.074;13.764;2023-02-18T17:21:54;99726.41;;;11.92
43802;BMP280;29429;51.074;13.764;2023-02-18T17:24:22;99728.69;;;11.89
43802;BMP280;29429;51.074;13.764;2023-02-18T17:26:51;99734.69;;;11.84
43802;BMP280;29429;51.074;13.764;2023-02-18T17:29:24;99712.94;;;11.74
43802;BMP280;29429;51.074;13.764;2023-02-18T17:32:20;99739.69;;;11.74
43802;BMP280;29429;51.074;13.764;2023-02-18T17:34:53;99723.25;;;11.64
43802;BMP280;29429;51.074;13.764;2023-02-18T17:37:21;99745.81;;;11.68
43802;BMP280;29429;51.074;13.764;2023-02-18T17:39:51;99764.94;;;11.65
43802;BMP280;29429;51.074;13.764;2023-02-18T17:42:24;99738.91;;;11.54
43802;BMP280;29429;51.074;13.764;2023-02-18T17:49:01;99754.75;;;11.36
43802;BMP280;29429;51.074;13.764;2023-02-18T17:51:31;99767.91;;;11.31
43802;BMP280;29429;51.074;13.764;2023-02-18T17:54:19;99772.03;;;11.33
43802;BMP280;29429;51.074;13.764;2023-02-18T17:56:49;99774.28;;;11.36
43802;BMP280;29429;51.074;13.764;2023-02-18T17:59:17;99781.28;;;11.37
43802;BMP280;29429;51.074;13.764;2023-02-18T18:01:49;99786.81;;;11.36
43802;BMP280;29429;51.074;13.764;2023-02-18T18:04:18;99793.59;;;11.38
43802;BMP280;29429;51.074;13.764;2023-02-18T18:07:08;99794.22;;;11.40
43802;BMP280;29429;51.074;13.764;2023-02-18T18:10:11;99798.94;;;11.38
43802;BMP280;29429;51.074;13.764;2023-02-18T18:12:38;99798.53;;;11.35
43802;BMP280;29429;51.074;13.764;2023-02-18T18:30:45;99826.63;;;11.44
43802;BMP280;29429;51.074;13.764;2023-02-18T18:33:20;99811.84;;;11.48
43802;BMP280;29429;51.074;13.764;2023-02-18T18:35:55;99824.97;;;11.56
43802;BMP280;29429;51.074;13.764;2023-02-18T18:38:28;99847.75;;;11.65
43802;BMP280;29429;51.074;13.764;2023-02-18T18:41:15;99833.38;;;11.66
43802;BMP280;29429;51.074;13.764;2023-02-18T18:43:51;99824.34;;;11.67
43802;BMP280;29429;51.074;13.764;2023-02-18T18:46:33;99849.84;;;11.70
43802;BMP280;29429;51.074;13.764;2023-02-18T18:49:06;99832.97;;;11.62
43802;BMP280;29429;51.074;13.764;2023-02-18T18:51:44;99849.41;;;11.66
43802;BMP280;29429;51.074;13.764;2023-02-18T18:57:02;99831.75;;;11.52
43802;BMP280;29429;51.074;13.764;2023-02-18T18:59:33;99833.00;;;11.49
43802;BMP280;29429;51.074;13.764;2023-02-18T19:02:02;99851.50;;;11.51
43802;BMP280;29429;51.074;13.764;2023-02-18T19:04:32;99842.44;;;11.52
43802;BMP280;29429;51.074;13.764;2023-02-18T19:07:47;99836.50;;;11.50
43802;BMP280;29429;51.074;13.764;2023-02-18T19:10:16;99839.38;;;11.55
43802;BMP280;29429;51.074;13.764;2023-02-18T19:12:53;99843.06;;;11.54
43802;BMP280;29429;51.074;13.764;2023-02-18T19:20:49;99837.94;;;11.52
43802;BMP280;29429;51.074;13.764;2023-02-18T19:24:05;99843.06;;;11.47
43802;BMP280;29429;51.074;13.764;2023-02-18T19:26:43;99839.16;;;11.50
43802;BMP280;29429;51.074;13.764;2023-02-18T19:29:15;99844.28;;;11.58
43802;BMP280;29429;51.074;13.764;2023-02-18T19:31:48;99862.16;;;11.64
43802;BMP280;29429;51.074;13.764;2023-02-18T19:34:18;99852.31;;;11.65
43802;BMP280;29429;51.074;13.764;2023-02-18T19:37:08;99842.03;;;11.61
43802;BMP280;29429;51.074;13.764;2023-02-18T19:40:09;99856.63;;;11.59
43802;BMP280;29429;51.074;13.764;2023-02-18T19:42:54;99853.97;;;11.59
43802;BMP280;29429;51.074;13.764;2023-02-18T19:45:52;99859.91;;;11.54
43802;BMP280;29429;51.074;13.764;2023-02-18T19:48:20;99859.72;;;11.56